Time;durP1;ratioP1;P1;durP2;ratioP2;P2;SDS_P1;SDS_P2;PMS_P1;PMS_P2;Temp;Humidity;BMP_temperature;BMP_pressure;BME280_temperature;BME280_humidity;BME280_pressure;Samples;Min_cycle;Max_cycle;Signal;HPM_P1;HPM_P2
2021/05/13 00:01:48;;;;;;;4.45;2.35;;;;;;;32.78;25.14;96831.19;5094439;28;20479;-89
2021/05/13 00:04:15;;;;;;;3.75;3.28;;;;;;;32.43;25.44;96833.88;5093932;28;20411;-89
2021/05/13 00:06:41;;;;;;;4.88;2.80;;;;;;;32.05;26.20;96835.50;5093574;28;20582;-88
2021/05/13 00:09:10;;;;;;;3.15;2.72;;;;;;;32.19;25.67;96831.59;5097785;28;20032;-89
2021/05/13 00:11:37;;;;;;;4.55;3.50;;;;;;;32.45;25.58;96842.63;5093691;28;20035;-89
2021/05/13 00:14:06;;;;;;;2.60;2.40;;;;;;;32.49;25.62;96840.28;5093507;28;20036;-89
2021/05/13 00:16:34;;;;;;;3.45;2.35;;;;;;;32.39;25.12;96839.84;5094122;28;20055;-89
2021/05/13 00:19:05;;;;;;;2.80;2.50;;;;;;;32.42;25.68;96843.69;5089042;28;20032;-90
2021/05/13 00:21:31;;;;;;;3.03;2.75;;;;;;;32.34;25.47;96839.84;5092573;28;20297;-89
2021/05/13 00:23:57;;;;;;;2.10;1.90;;;;;;;33.06;23.99;96833.94;5094761;28;20083;-89
2021/05/13 00:26:36;;;;;;;2.67;2.08;;;;;;;33.66;23.42;96832.78;5093937;28;20024;-89
2021/05/13 00:29:26;;;;;;;1.73;1.35;;;;;;;34.42;22.17;96835.47;5088676;28;20491;-89
2021/05/13 00:31:52;;;;;;;2.13;1.80;;;;;;;34.63;22.66;96832.94;5094610;28;20032;-89
2021/05/13 00:34:18;;;;;;;2.20;1.52;;;;;;;34.80;21.80;96835.59;5093713;28;20274;-89
2021/05/13 00:36:44;;;;;;;3.28;1.65;;;;;;;34.85;22.00;96826.94;5089714;28;20472;-89
2021/05/13 00:39:11;;;;;;;2.58;1.75;;;;;;;34.39;22.57;96830.84;5094618;28;20053;-89
2021/05/13 00:41:38;;;;;;;3.10;1.83;;;;;;;34.42;22.40;96826.16;5093416;28;20298;-89
2021/05/13 00:44:06;;;;;;;1.95;1.77;;;;;;;34.29;22.72;96820.31;5094056;28;20036;-89
2021/05/13 00:46:33;;;;;;;3.05;2.13;;;;;;;34.08;23.17;96820.78;5093998;28;20134;-87
2021/05/13 00:49:15;;;;;;;2.08;1.88;;;;;;;34.21;22.91;96825.06;5094245;28;20060;-87
2021/05/13 00:51:41;;;;;;;1.67;1.52;;;;;;;34.56;22.25;96819.28;5090138;28;20138;-86
2021/05/13 00:54:07;;;;;;;3.30;1.90;;;;;;;34.20;22.50;96823.50;5090742;28;20034;-86
2021/05/13 00:56:34;;;;;;;4.70;2.63;;;;;;;33.61;23.47;96821.44;5093289;28;20089;-86
2021/05/13 00:59:05;;;;;;;3.90;2.08;;;;;;;33.58;23.71;96817.59;5093985;28;20438;-86
2021/05/13 01:04:20;;;;;;;3.88;2.45;;;;;;;33.81;22.95;96812.47;5092574;28;20032;-86
2021/05/13 01:06:50;;;;;;;2.88;2.45;;;;;;;33.70;23.39;96806.88;5093134;28;20097;-86
2021/05/13 01:09:22;;;;;;;2.88;2.17;;;;;;;33.38;24.03;96798.81;5091199;28;20028;-86
2021/05/13 01:11:52;;;;;;;3.30;2.40;;;;;;;33.18;24.00;96798.44;5084771;28;20055;-85
2021/05/13 01:19:52;;;;;;;3.35;3.05;;;;;;;32.82;24.86;96791.09;5088317;28;20115;-86
2021/05/13 01:22:19;;;;;;;;;;;;;;;32.43;25.77;96792.03;5091762;28;20399;-86
2021/05/13 01:24:46;;;;;;;3.28;2.40;;;;;;;32.69;24.68;96783.94;5092827;28;20045;-86
2021/05/13 01:27:12;;;;;;;5.47;2.58;;;;;;;32.79;24.88;96784.41;5093571;28;20085;-85
2021/05/13 01:29:45;;;;;;;3.90;2.92;;;;;;;32.40;24.88;96776.00;5093283;28;20059;-86
2021/05/13 01:32:12;;;;;;;3.50;1.92;;;;;;;32.71;24.50;96777.72;5092742;28;20024;-86
2021/05/13 01:34:38;;;;;;;2.95;2.00;;;;;;;32.32;24.68;96779.94;5086277;28;20111;-86
2021/05/13 01:37:04;;;;;;;3.40;2.40;;;;;;;32.19;24.99;96776.84;5093123;28;20047;-86
2021/05/13 01:39:31;;;;;;;2.30;2.10;;;;;;;32.03;25.73;96765.03;5092536;28;20479;-86
2021/05/13 01:41:57;;;;;;;4.38;2.70;;;;;;;32.37;25.00;96771.38;5093549;28;20075;-86
2021/05/13 01:44:23;;;;;;;2.80;2.22;;;;;;;32.68;24.16;96764.56;5092032;28;20438;-86
2021/05/13 01:46:49;;;;;;;4.10;2.38;;;;;;;32.69;24.55;96763.25;5093682;28;20119;-86
2021/05/13 01:49:17;;;;;;;5.45;2.33;;;;;;;32.23;24.96;96760.34;5092503;28;20028;-88
2021/05/13 01:51:44;;;;;;;3.33;2.67;;;;;;;32.15;25.07;96759.31;5090756;28;20062;-89
2021/05/13 01:54:10;;;;;;;2.47;2.20;;;;;;;31.45;25.96;96748.28;5092652;28;20488;-89
2021/05/13 01:56:36;;;;;;;3.72;2.63;;;;;;;31.80;26.13;96754.19;5093162;28;20591;-89
2021/05/13 01:59:03;;;;;;;2.97;2.67;;;;;;;31.88;25.08;96749.56;5091498;28;20495;-89
2021/05/13 02:01:29;;;;;;;3.65;2.92;;;;;;;32.09;25.33;96747.97;5092475;28;20365;-89
2021/05/13 02:03:55;;;;;;;5.95;3.22;;;;;;;32.11;24.92;96745.41;5092364;28;20028;-88
2021/05/13 02:06:21;;;;;;;3.55;2.92;;;;;;;32.34;25.06;96752.53;5091278;28;20044;-88
2021/05/13 02:08:47;;;;;;;3.30;2.33;;;;;;;32.41;24.43;96740.63;5092605;28;20031;-89
2021/05/13 02:11:13;;;;;;;4.25;2.65;;;;;;;32.29;24.96;96741.97;5092694;28;20039;-88
2021/05/13 02:13:39;;;;;;;3.03;2.50;;;;;;;32.08;24.94;96740.75;5092715;28;20032;-89
2021/05/13 02:16:06;;;;;;;3.80;2.40;;;;;;;32.18;24.86;96732.72;5092524;28;20036;-89
2021/05/13 02:18:32;;;;;;;3.60;2.40;;;;;;;31.84;25.95;96735.59;5083533;28;20055;-88
2021/05/13 02:20:58;;;;;;;3.47;2.42;;;;;;;32.25;24.96;96732.94;5091987;28;20043;-89
2021/05/13 02:23:24;;;;;;;2.17;1.67;;;;;;;31.85;25.75;96728.66;5092099;28;20115;-89
2021/05/13 02:25:50;;;;;;;3.15;2.30;;;;;;;32.45;24.62;96731.81;5091952;28;20060;-89
2021/05/13 02:28:17;;;;;;;3.00;2.05;;;;;;;32.90;24.36;96732.38;5092826;28;20070;-89
2021/05/13 02:30:43;;;;;;;5.00;2.33;;;;;;;32.95;24.00;96734.44;5088912;28;20047;-89
2021/05/13 02:33:11;;;;;;;4.63;2.65;;;;;;;32.88;24.02;96726.47;5092527;28;20075;-89
2021/05/13 02:35:38;;;;;;;3.92;1.98;;;;;;;33.15;23.82;96723.44;5090551;28;20032;-89
2021/05/13 02:38:04;;;;;;;4.25;2.15;;;;;;;33.20;23.68;96727.56;5088561;28;20394;-89
2021/05/13 02:40:30;;;;;;;2.33;2.08;;;;;;;33.21;23.40;96726.25;5092341;28;20089;-89
2021/05/13 02:42:56;;;;;;;2.20;2.00;;;;;;;33.03;23.86;96727.66;5091076;28;20036;-89
2021/05/13 02:45:23;;;;;;;2.90;2.05;;;;;;;32.96;24.06;96724.56;5092203;28;20031;-89
2021/05/13 02:47:49;;;;;;;3.65;2.08;;;;;;;32.77;23.85;96718.00;5092388;28;20078;-89
2021/05/13 02:50:16;;;;;;;2.83;2.45;;;;;;;32.79;24.33;96709.72;5092630;28;20103;-89
2021/05/13 02:52:42;;;;;;;4.28;2.53;;;;;;;32.90;24.16;96713.25;5095966;28;20044;-89
2021/05/13 02:55:10;;;;;;;2.15;1.95;;;;;;;33.14;23.89;96712.59;5095468;28;20039;-89
2021/05/13 02:57:40;;;;;;;2.97;2.10;;;;;;;33.11;23.95;96710.81;5094216;28;20430;-89
2021/05/13 03:02:53;;;;;;;2.40;2.20;;;;;;;32.56;24.62;96715.50;5092910;28;20101;-89
2021/05/13 03:05:19;;;;;;;3.08;1.80;;;;;;;32.29;24.22;96707.09;5093868;28;20031;-89
2021/05/13 03:07:52;;;;;;;1.98;1.75;;;;;;;31.23;24.86;96712.16;5094102;28;20043;-89
2021/05/13 03:13:00;;;;;;;5.85;1.65;;;;;;;30.82;25.01;96708.22;5094446;28;20131;-89
2021/05/13 03:15:28;;;;;;;1.80;1.70;;;;;;;30.93;24.66;96692.03;5091397;28;20086;-89
2021/05/13 03:17:54;;;;;;;2.03;1.73;;;;;;;30.16;25.63;96703.88;5093232;28;20056;-88
2021/05/13 03:20:25;;;;;;;4.00;1.20;;;;;;;29.46;26.33;96700.13;5095472;28;20036;-84
2021/05/13 03:22:55;;;;;;;1.88;1.35;;;;;;;28.37;27.87;96700.13;5092009;28;20032;-84
2021/05/13 03:25:33;;;;;;;3.22;1.60;;;;;;;28.12;28.53;96703.69;5092987;28;20571;-85
2021/05/13 03:28:09;;;;;;;1.40;1.30;;;;;;;28.59;27.46;96693.97;5095349;28;20040;-85
2021/05/13 03:30:43;;;;;;;1.98;1.80;;;;;;;28.41;27.61;96699.88;5092262;28;20110;-85
2021/05/13 03:33:11;;;;;;;2.67;1.25;;;;;;;29.09;25.94;96702.91;5091603;28;20032;-85
2021/05/13 03:35:37;;;;;;;2.45;1.58;;;;;;;28.58;26.63;96690.34;5092739;28;20024;-85
2021/05/13 03:38:05;;;;;;;2.08;1.58;;;;;;;29.28;25.68;96698.47;5092835;28;20131;-84
2021/05/13 03:40:32;;;;;;;2.60;1.60;;;;;;;28.71;26.63;96701.25;5091961;28;20069;-84
2021/05/13 03:42:59;;;;;;;2.17;1.40;;;;;;;28.31;27.64;96698.50;5093847;28;20036;-85
2021/05/13 03:45:25;;;;;;;3.10;1.33;;;;;;;28.50;27.11;96689.22;5093449;28;20062;-84
2021/05/13 03:47:51;;;;;;;2.88;1.40;;;;;;;28.44;26.53;96687.59;5091448;28;20495;-84
2021/05/13 03:50:18;;;;;;;1.50;1.40;;;;;;;27.44;27.83;96688.34;5094490;28;20443;-84
2021/05/13 03:52:44;;;;;;;2.67;1.65;;;;;;;27.40;28.10;96680.84;5092277;28;20035;-83
2021/05/13 03:55:11;;;;;;;5.28;1.70;;;;;;;28.67;26.64;96678.13;5092749;28;20028;-84
2021/05/13 03:57:38;;;;;;;3.60;1.50;;;;;;;29.28;25.26;96670.97;5088640;28;20040;-84
2021/05/13 04:00:10;;;;;;;2.70;1.58;;;;;;;28.54;26.40;96677.72;5088520;28;20036;-84
2021/05/13 04:02:36;;;;;;;2.47;1.45;;;;;;;28.62;26.40;96676.78;5103990;28;20085;-84
2021/05/13 04:05:04;;;;;;;2.22;1.50;;;;;;;27.23;28.19;96679.03;5093601;28;20391;-85
2021/05/13 04:07:36;;;;;;;4.07;1.40;;;;;;;28.79;26.26;96679.00;5090715;28;20043;-85
2021/05/13 04:10:08;;;;;;;2.30;1.50;;;;;;;27.73;27.19;96669.28;5094778;28;20040;-85
2021/05/13 04:12:38;;;;;;;1.88;1.58;;;;;;;27.34;27.69;96671.53;5093657;28;20025;-85
2021/05/13 04:15:10;;;;;;;1.58;1.30;;;;;;;26.93;28.29;96669.06;5090105;28;20051;-85
2021/05/13 04:17:36;;;;;;;2.22;1.75;;;;;;;26.03;29.75;96669.44;5085937;28;20063;-85
2021/05/13 04:20:04;;;;;;;4.80;1.80;;;;;;;26.48;29.45;96671.09;5093198;28;20079;-85
2021/05/13 04:22:30;;;;;;;3.42;2.00;;;;;;;25.85;30.01;96671.59;5092142;28;20479;-85
2021/05/13 04:24:56;;;;;;;3.47;1.75;;;;;;;25.37;30.81;96671.56;5092618;28;20141;-85
2021/05/13 04:27:22;;;;;;;3.17;1.90;;;;;;;27.06;28.96;96664.69;5084347;28;20032;-84
2021/05/13 04:29:48;;;;;;;2.60;1.70;;;;;;;28.46;26.50;96662.47;5084109;28;20047;-84
2021/05/13 04:32:14;;;;;;;6.38;2.50;;;;;;;26.38;28.07;96649.13;5090721;28;20101;-83
2021/05/13 04:34:40;;;;;;;1.65;1.40;;;;;;;25.66;29.86;96664.56;5090014;28;20392;-84
2021/05/13 04:37:06;;;;;;;2.72;1.60;;;;;;;27.01;28.01;96671.00;5086541;28;20044;-84
2021/05/13 04:39:33;;;;;;;2.40;1.67;;;;;;;25.17;30.70;96671.34;5083119;28;20154;-86
2021/05/13 04:41:59;;;;;;;5.45;2.25;;;;;;;25.42;30.34;96670.13;5085885;28;20032;-86
2021/05/13 04:44:26;;;;;;;2.53;1.90;;;;;;;24.87;30.87;96661.19;5077455;28;20040;-86
2021/05/13 04:46:58;;;;;;;2.75;1.60;;;;;;;25.71;29.80;96666.72;5082775;28;20024;-86
2021/05/13 04:49:25;;;;;;;3.40;1.35;;;;;;;24.97;30.83;96662.69;5085705;28;20048;-86
2021/05/13 04:51:51;;;;;;;3.63;2.00;;;;;;;25.23;30.87;96666.63;5084459;28;20044;-85
2021/05/13 04:54:18;;;;;;;3.03;1.63;;;;;;;25.28;30.43;96668.03;5084086;28;20033;-84
2021/05/13 04:56:45;;;;;;;1.95;1.73;;;;;;;27.38;27.57;96662.88;5083956;28;21374;-86
2021/05/13 04:59:12;;;;;;;7.00;1.65;;;;;;;28.02;25.55;96662.75;5083943;28;20065;-84
2021/05/13 05:01:38;;;;;;;1.83;1.20;;;;;;;29.65;24.62;96650.34;5083015;28;20028;-85
2021/05/13 05:04:04;;;;;;;5.47;1.42;;;;;;;28.67;25.19;96659.13;5092449;28;21418;-83
2021/05/13 05:06:32;;;;;;;1.75;1.65;;;;;;;30.32;23.64;96654.25;5090539;28;20049;-89
2021/05/13 05:08:58;;;;;;;1.63;1.20;;;;;;;30.57;22.55;96647.66;5091483;28;20400;-87
2021/05/13 05:11:24;;;;;;;3.10;1.35;;;;;;;31.75;21.15;96647.13;5091771;28;20020;-86
2021/05/13 05:13:50;;;;;;;1.25;1.02;;;;;;;31.09;21.92;96642.28;5084964;28;20119;-84
2021/05/13 05:16:16;;;;;;;1.33;1.23;;;;;;;30.58;22.55;96644.31;5093395;28;20036;-85
2021/05/13 05:18:43;;;;;;;2.47;1.52;;;;;;;27.56;25.78;96642.13;5091734;28;20502;-86
2021/05/13 05:21:10;;;;;;;2.47;1.65;;;;;;;27.16;26.53;96643.59;5091877;28;20128;-86
2021/05/13 05:23:38;;;;;;;1.20;1.00;;;;;;;26.82;27.06;96638.69;5092463;28;20068;-87
2021/05/13 05:26:04;;;;;;;3.10;1.40;;;;;;;27.93;25.30;96635.44;5083187;28;20024;-85
2021/05/13 05:28:30;;;;;;;1.67;1.40;;;;;;;29.49;23.99;96637.69;5089321;28;20495;-84
2021/05/13 05:30:57;;;;;;;3.40;1.40;;;;;;;29.29;23.86;96637.81;5088487;28;20101;-88
2021/05/13 05:33:23;;;;;;;1.73;1.13;;;;;;;30.60;22.46;96635.28;5088688;28;20484;-88
2021/05/13 05:35:49;;;;;;;1.98;1.40;;;;;;;30.85;22.33;96630.69;5085987;28;20032;-90
2021/05/13 05:38:16;;;;;;;3.67;1.30;;;;;;;30.73;21.87;96632.75;5088364;28;20047;-92
2021/05/13 05:40:42;;;;;;;4.00;1.45;;;;;;;30.47;22.61;96629.34;5090160;28;20105;-91
2021/05/13 05:43:08;;;;;;;1.45;1.30;;;;;;;30.27;22.56;96629.56;5087346;28;20033;-91
2021/05/13 05:45:34;;;;;;;1.40;1.30;;;;;;;28.48;24.62;96629.63;5086280;28;20036;-92
2021/05/13 05:48:01;;;;;;;2.88;1.40;;;;;;;29.24;23.72;96635.72;5092392;28;20063;-92
2021/05/13 05:50:30;;;;;;;1.50;1.00;;;;;;;29.72;23.04;96641.41;5092786;28;20035;-92
2021/05/13 05:52:56;;;;;;;1.10;1.00;;;;;;;30.49;22.58;96641.72;5090991;28;20047;-92
2021/05/13 05:55:23;;;;;;;2.08;1.23;;;;;;;31.10;21.99;96632.50;5093716;28;20395;-92
2021/05/13 05:57:49;;;;;;;2.83;1.17;;;;;;;29.66;23.61;96638.56;5090258;28;20032;-92
2021/05/13 06:00:16;;;;;;;1.65;1.02;;;;;;;30.03;22.84;96644.16;5090275;28;20494;-92
2021/05/13 06:02:42;;;;;;;1.80;1.33;;;;;;;28.78;24.70;96640.72;5087823;28;20347;-92
2021/05/13 06:05:09;;;;;;;2.30;1.30;;;;;;;29.62;23.42;96642.88;5079085;28;20033;-92
2021/05/13 06:07:35;;;;;;;2.65;1.40;;;;;;;30.46;22.46;96639.91;5072872;28;20035;-92
2021/05/13 06:10:02;;;;;;;3.30;1.73;;;;;;;29.64;23.20;96635.44;5083128;28;20020;-92
2021/05/13 06:12:28;;;;;;;2.47;1.60;;;;;;;29.88;22.81;96635.06;5088692;28;20036;-92
2021/05/13 06:14:54;;;;;;;2.53;1.60;;;;;;;30.73;22.59;96630.69;5093842;28;20024;-92
2021/05/13 06:17:20;;;;;;;1.80;1.58;;;;;;;30.83;22.12;96633.28;5091731;28;20138;-93
2021/05/13 06:19:46;;;;;;;1.63;1.13;;;;;;;30.92;22.12;96633.81;5093448;28;20016;-92
2021/05/13 06:22:12;;;;;;;2.80;2.28;;;;;;;28.98;24.07;96634.97;5091765;28;20051;-92
2021/05/13 06:24:38;;;;;;;2.22;1.33;;;;;;;30.55;22.76;96641.75;5092928;28;20024;-92
2021/05/13 06:27:06;;;;;;;3.03;1.90;;;;;;;31.43;21.95;96641.00;5093160;28;20081;-91
2021/05/13 06:29:32;;;;;;;3.15;1.52;;;;;;;32.40;20.83;96638.84;5092488;28;20487;-90
2021/05/13 06:31:59;;;;;;;5.72;2.03;;;;;;;32.01;21.01;96639.84;5093288;28;20055;-90
2021/05/13 06:34:28;;;;;;;2.25;1.52;;;;;;;30.92;22.46;96650.06;5093351;28;20032;-90
2021/05/13 06:36:54;;;;;;;3.83;2.22;;;;;;;32.14;21.37;96647.00;5092886;28;20043;-89
2021/05/13 06:39:21;;;;;;;3.13;1.90;;;;;;;32.63;21.05;96637.44;5091921;28;20425;-90
2021/05/13 06:41:47;;;;;;;2.67;1.40;;;;;;;32.87;20.41;96640.38;5092914;28;20502;-90
2021/05/13 06:44:13;;;;;;;2.15;1.50;;;;;;;31.96;21.28;96640.63;5089516;28;20073;-90
2021/05/13 06:46:39;;;;;;;2.08;1.65;;;;;;;32.29;21.13;96638.91;5092197;28;20069;-90
2021/05/13 06:49:05;;;;;;;3.08;1.50;;;;;;;33.40;20.23;96636.81;5093192;28;20028;-90
2021/05/13 06:51:31;;;;;;;2.53;1.83;;;;;;;33.08;20.41;96635.84;5093392;28;20040;-90
2021/05/13 06:53:58;;;;;;;2.85;2.20;;;;;;;33.75;19.84;96640.91;5092301;28;20064;-89
2021/05/13 06:56:25;;;;;;;2.72;1.92;;;;;;;32.86;20.64;96640.91;5092902;28;20028;-89
2021/05/13 06:58:51;;;;;;;5.38;2.15;;;;;;;32.57;21.20;96642.41;5090883;28;20090;-89
2021/05/13 07:01:18;;;;;;;3.75;2.33;;;;;;;33.58;20.04;96626.84;5093269;28;20148;-90
2021/05/13 07:03:44;;;;;;;8.15;2.10;;;;;;;34.03;19.76;96627.91;5092875;28;20036;-88
2021/05/13 07:06:10;;;;;;;6.30;2.35;;;;;;;34.65;19.10;96631.50;5093403;28;20030;-89
2021/05/13 07:08:36;;;;;;;4.88;2.42;;;;;;;35.00;18.64;96630.41;5092874;28;20028;-88
2021/05/13 07:11:02;;;;;;;6.07;3.08;;;;;;;35.25;18.99;96625.34;5085085;28;20035;-90
2021/05/13 07:13:28;;;;;;;3.90;2.22;;;;;;;35.22;18.75;96623.56;5092274;28;20046;-88
2021/05/13 07:15:55;;;;;;;5.60;3.80;;;;;;;34.99;19.47;96628.09;5092682;28;20032;-89
2021/05/13 07:18:21;;;;;;;4.18;2.90;;;;;;;35.25;18.67;96619.63;5092806;28;20063;-90
2021/05/13 07:20:47;;;;;;;5.10;3.17;;;;;;;35.35;18.65;96621.53;5092675;28;20028;-87
2021/05/13 07:23:14;;;;;;;4.47;2.72;;;;;;;35.89;19.15;96611.72;5092411;28;20060;-87
2021/05/13 07:25:41;;;;;;;4.70;3.13;;;;;;;36.45;18.50;96611.34;5092926;28;20032;-88
2021/05/13 07:28:07;;;;;;;5.25;3.17;;;;;;;36.51;17.74;96603.38;5091605;28;20024;-88
2021/05/13 07:30:34;;;;;;;5.22;3.13;;;;;;;35.82;18.72;96609.50;5092281;28;20028;-89
2021/05/13 07:33:03;;;;;;;6.20;4.13;;;;;;;35.86;18.58;96605.00;5090936;28;20036;-88
2021/05/13 07:35:29;;;;;;;5.47;2.75;;;;;;;35.89;18.78;96606.78;5093290;28;20024;-87
2021/05/13 07:37:55;;;;;;;4.82;2.60;;;;;;;36.52;18.40;96604.94;5094697;28;20039;-88
2021/05/13 07:40:23;;;;;;;6.68;3.42;;;;;;;36.89;17.53;96604.56;5095436;28;20097;-90
2021/05/13 07:42:50;;;;;;;4.45;3.30;;;;;;;36.64;17.68;96603.38;5088423;28;20033;-88
2021/05/13 07:45:17;;;;;;;4.28;2.33;;;;;;;35.70;18.69;96608.97;5076791;28;20033;-87
2021/05/13 07:47:44;;;;;;;5.63;3.15;;;;;;;35.93;19.03;96598.63;5090699;28;20547;-87
2021/05/13 07:50:14;;;;;;;5.78;2.92;;;;;;;33.77;21.46;96599.19;5094287;28;20021;-88
2021/05/13 07:52:41;;;;;;;4.85;3.60;;;;;;;32.08;23.09;96593.06;5089009;28;20052;-89
2021/05/13 07:55:08;;;;;;;5.32;3.58;;;;;;;34.13;21.56;96588.41;5077990;28;20496;-88
2021/05/13 07:57:34;;;;;;;6.68;3.20;;;;;;;34.41;21.03;96583.09;5081651;28;20040;-88
2021/05/13 08:00:03;;;;;;;8.15;2.75;;;;;;;34.05;21.55;96584.66;5081377;28;20432;-88
2021/05/13 08:02:29;;;;;;;5.35;3.35;;;;;;;34.17;20.99;96582.41;5095752;28;20036;-89
2021/05/13 08:04:55;;;;;;;4.63;2.53;;;;;;;35.52;20.04;96584.16;5096246;28;20032;-88
2021/05/13 08:07:22;;;;;;;5.28;2.60;;;;;;;35.32;20.09;96576.94;5095708;28;20033;-88
2021/05/13 08:09:48;;;;;;;5.63;3.50;;;;;;;35.52;19.43;96584.16;5088808;28;20088;-89
2021/05/13 08:12:15;;;;;;;8.02;2.20;;;;;;;34.89;19.62;96582.13;5095800;28;20089;-90
2021/05/13 08:14:41;;;;;;;5.25;2.95;;;;;;;35.45;19.72;96578.28;5095823;28;20065;-88
2021/05/13 08:17:08;;;;;;;3.92;2.95;;;;;;;34.37;20.82;96581.84;5095288;28;20535;-89
2021/05/13 08:19:34;;;;;;;4.05;3.00;;;;;;;34.41;20.88;96590.84;5095180;28;20079;-88
2021/05/13 08:22:00;;;;;;;3.38;2.80;;;;;;;35.23;20.31;96591.66;5095471;28;20085;-88
2021/05/13 08:24:26;;;;;;;5.28;3.42;;;;;;;35.83;19.74;96577.53;5095930;28;20086;-88
2021/05/13 08:26:54;;;;;;;5.53;3.20;;;;;;;36.25;19.83;96575.63;5090303;28;20131;-88
2021/05/13 08:29:20;;;;;;;5.28;3.17;;;;;;;36.25;19.59;96581.34;5094614;28;20119;-88
2021/05/13 08:31:46;;;;;;;4.07;2.25;;;;;;;36.90;19.48;96574.63;5095171;28;20032;-88
2021/05/13 08:34:12;;;;;;;3.70;2.53;;;;;;;37.73;18.08;96571.69;5094270;28;20475;-88
2021/05/13 08:36:38;;;;;;;2.65;2.03;;;;;;;38.59;17.38;96574.59;5093831;28;20099;-87
2021/05/13 08:39:05;;;;;;;4.80;2.30;;;;;;;38.76;17.00;96567.59;5093203;28;20040;-87
2021/05/13 08:41:31;;;;;;;3.17;2.40;;;;;;;38.45;17.00;96573.22;5093245;28;20498;-87
2021/05/13 08:43:59;;;;;;;3.88;2.55;;;;;;;38.63;16.02;96572.13;5093047;28;20052;-88
2021/05/13 08:46:25;;;;;;;3.22;2.08;;;;;;;38.65;17.03;96569.44;5094011;28;20059;-88
2021/05/13 08:48:51;;;;;;;5.18;1.98;;;;;;;39.05;16.26;96568.94;5094611;28;20024;-89
2021/05/13 08:51:18;;;;;;;2.10;1.90;;;;;;;39.38;16.27;96567.81;5094725;28;20448;-88
2021/05/13 08:53:55;;;;;;;5.57;1.85;;;;;;;39.64;15.91;96566.66;5095133;28;20064;-89
2021/05/13 08:56:25;;;;;;;4.25;3.03;;;;;;;39.73;15.98;96568.94;5094669;28;20107;-89
2021/05/13 08:58:51;;;;;;;2.47;1.85;;;;;;;39.75;16.20;96572.00;5094854;28;20369;-89
2021/05/13 09:01:20;;;;;;;3.97;2.55;;;;;;;39.72;15.88;96568.19;5093330;28;20430;-88
2021/05/13 09:03:47;;;;;;;2.33;2.13;;;;;;;39.33;16.16;96572.41;5093689;28;20036;-89
2021/05/13 09:06:29;;;;;;;2.67;1.80;;;;;;;39.16;17.17;96574.34;5085693;28;20029;-89
2021/05/13 09:09:08;;;;;;;3.47;2.55;;;;;;;38.79;17.67;96564.31;5074433;28;20029;-88
2021/05/13 09:11:34;;;;;;;4.53;2.75;;;;;;;38.87;17.14;96565.09;5086224;28;20032;-88
2021/05/13 09:14:02;;;;;;;2.25;2.05;;;;;;;39.11;16.89;96567.44;5094713;28;20103;-87
2021/05/13 09:16:35;;;;;;;4.45;2.20;;;;;;;39.21;16.84;96570.53;5093386;28;20048;-87
2021/05/13 09:19:32;;;;;;;2.45;1.67;;;;;;;39.52;16.63;96568.38;5094551;28;20086;-88
2021/05/13 09:22:07;;;;;;;5.63;2.90;;;;;;;39.50;15.88;96568.97;5093121;28;20066;-87
2021/05/13 09:24:51;;;;;;;4.03;2.90;;;;;;;38.32;17.32;96564.00;5094852;28;20020;-87
2021/05/13 09:27:23;;;;;;;3.00;2.33;;;;;;;38.39;17.85;96557.53;5091205;28;20105;-88
2021/05/13 09:30:05;;;;;;;2.78;2.05;;;;;;;39.04;17.21;96556.72;5093840;28;20042;-87
2021/05/13 09:32:31;;;;;;;3.38;1.88;;;;;;;39.72;17.08;96550.19;5093192;28;20036;-87
2021/05/13 09:35:09;;;;;;;3.70;2.63;;;;;;;39.93;16.29;96551.44;5088181;28;20040;-87
2021/05/13 09:37:47;;;;;;;3.10;2.22;;;;;;;40.04;16.05;96544.53;5091910;28;20380;-87
2021/05/13 09:40:18;;;;;;;2.97;1.98;;;;;;;39.87;15.70;96541.50;5094111;28;20085;-87
2021/05/13 09:42:44;;;;;;;2.90;2.15;;;;;;;40.24;16.62;96534.88;5094209;28;20107;-87
2021/05/13 09:45:10;;;;;;;4.32;2.65;;;;;;;40.51;16.24;96533.03;5093563;28;20081;-87
2021/05/13 09:47:38;;;;;;;1.98;1.73;;;;;;;40.23;16.43;96530.47;5092758;28;20492;-87
2021/05/13 09:50:20;;;;;;;3.10;1.98;;;;;;;40.39;15.89;96526.16;5093694;28;20039;-87
2021/05/13 09:52:52;;;;;;;9.02;2.22;;;;;;;40.53;15.69;96523.81;5093915;28;20479;-87
2021/05/13 09:55:33;;;;;;;2.33;1.90;;;;;;;40.39;16.27;96531.16;5094073;28;20028;-87
2021/05/13 09:58:05;;;;;;;5.07;2.00;;;;;;;39.99;16.39;96531.88;5093800;28;20036;-87
2021/05/13 10:00:47;;;;;;;3.10;2.30;;;;;;;39.76;16.34;96531.19;5092043;28;20020;-87
2021/05/13 10:03:22;;;;;;;4.38;3.50;;;;;;;38.47;17.10;96523.88;5093505;28;20368;-87
2021/05/13 10:05:52;;;;;;;6.07;3.42;;;;;;;38.00;18.01;96524.28;5094006;28;20107;-87
2021/05/13 10:08:18;;;;;;;4.97;2.90;;;;;;;37.80;18.11;96523.03;5075483;28;20039;-86
2021/05/13 10:10:46;;;;;;;4.80;2.60;;;;;;;37.78;18.78;96524.91;5093261;28;20028;-87
2021/05/13 10:13:16;;;;;;;6.32;2.80;;;;;;;38.20;18.23;96519.78;5093751;28;20024;-87
2021/05/13 10:15:42;;;;;;;4.38;2.75;;;;;;;38.19;17.73;96518.22;5093233;28;20028;-86
2021/05/13 10:18:21;;;;;;;4.20;3.33;;;;;;;38.15;17.98;96515.75;5092971;28;20070;-88
2021/05/13 10:20:54;;;;;;;3.97;2.85;;;;;;;38.30;18.47;96515.06;5078514;28;20044;-88
2021/05/13 10:23:21;;;;;;;5.65;1.85;;;;;;;38.80;17.62;96516.31;5088685;28;20021;-87
2021/05/13 10:25:47;;;;;;;2.80;2.13;;;;;;;39.29;16.61;96516.72;5085186;28;20036;-88
2021/05/13 10:28:14;;;;;;;3.45;2.22;;;;;;;39.29;17.32;96508.84;5093171;28;20039;-88
2021/05/13 10:30:40;;;;;;;2.90;1.95;;;;;;;39.51;17.05;96504.44;5096421;28;20040;-88
2021/05/13 10:33:09;;;;;;;3.67;2.30;;;;;;;39.77;16.16;96501.09;5092810;28;20028;-88
2021/05/13 10:35:35;;;;;;;2.97;2.22;;;;;;;39.85;16.51;96501.84;5091669;28;20427;-88
2021/05/13 10:38:07;;;;;;;2.92;1.85;;;;;;;40.09;16.67;96491.81;5092234;28;20391;-88
2021/05/13 10:43:08;;;;;;;2.60;1.85;;;;;;;40.46;16.56;96496.63;5093594;28;20078;-88
2021/05/13 10:45:38;;;;;;;2.13;1.75;;;;;;;40.68;16.50;96503.56;5088086;28;20036;-88
2021/05/13 10:48:27;;;;;;;3.05;2.30;;;;;;;40.47;16.02;96500.25;5092337;28;20036;-88
2021/05/13 10:51:02;;;;;;;3.10;2.22;;;;;;;40.55;16.23;96495.97;5087283;28;20494;-89
2021/05/13 10:53:34;;;;;;;2.50;1.88;;;;;;;40.56;15.78;96493.88;5089492;28;20033;-89
2021/05/13 10:56:24;;;;;;;2.25;1.88;;;;;;;40.51;16.00;96484.13;5091917;28;20040;-88
2021/05/13 10:59:00;;;;;;;3.28;2.15;;;;;;;40.72;16.14;96491.63;5092705;28;20040;-88
2021/05/13 11:01:32;;;;;;;3.78;1.95;;;;;;;40.86;16.11;96487.16;5091774;28;20076;-88
2021/05/13 11:04:20;;;;;;;2.63;1.95;;;;;;;40.83;16.33;96480.41;5092389;28;20032;-88
2021/05/13 11:06:47;;;;;;;2.85;1.67;;;;;;;41.05;16.45;96476.63;5079210;28;20068;-89
2021/05/13 11:09:38;;;;;;;4.22;1.83;;;;;;;40.05;16.16;96476.31;5092937;28;20031;-90
2021/05/13 11:12:13;;;;;;;3.00;1.90;;;;;;;40.17;16.92;96478.13;5075601;28;20067;-87
2021/05/13 11:20:33;;;;;;;7.22;2.17;;;;;;;40.98;15.94;96468.81;5085188;28;20040;-92
2021/05/13 11:23:01;;;;;;;3.08;2.42;;;;;;;41.07;15.69;96473.91;5091578;28;20044;-89
2021/05/13 11:25:42;;;;;;;3.17;2.15;;;;;;;40.56;15.60;96465.09;5089400;28;20063;-91
2021/05/13 11:28:27;;;;;;;3.60;2.20;;;;;;;40.21;16.12;96457.63;5096988;28;20402;-90
2021/05/13 11:31:05;;;;;;;3.25;2.25;;;;;;;39.76;16.01;96464.31;5096560;28;20036;-91
2021/05/13 11:33:41;;;;;;;5.10;2.75;;;;;;;39.70;16.80;96470.28;5096406;28;20119;-90
2021/05/13 11:36:09;;;;;;;2.47;2.22;;;;;;;39.58;16.78;96459.78;5096118;28;20036;-90
2021/05/13 11:38:36;;;;;;;2.30;1.90;;;;;;;39.93;16.74;96452.94;5096410;28;20078;-90
2021/05/13 11:41:03;;;;;;;3.47;2.15;;;;;;;39.85;16.68;96467.34;5095074;28;20024;-90
2021/05/13 11:43:34;;;;;;;3.88;2.53;;;;;;;39.76;17.16;96465.09;5095711;28;20107;-89
2021/05/13 11:46:08;;;;;;;2.53;2.03;;;;;;;39.67;16.74;96462.84;5093894;28;20040;-91
2021/05/13 11:48:40;;;;;;;3.47;2.40;;;;;;;39.41;16.89;96465.38;5096363;28;20012;-91
2021/05/13 11:51:09;;;;;;;3.80;2.55;;;;;;;39.19;16.80;96473.44;5096335;28;20073;-91
2021/05/13 11:53:37;;;;;;;4.43;2.55;;;;;;;38.97;17.27;96477.09;5096374;28;20069;-92
2021/05/13 11:56:05;;;;;;;3.35;2.03;;;;;;;39.06;16.95;96470.75;5094264;28;20035;-91
2021/05/13 11:58:50;;;;;;;2.17;1.85;;;;;;;38.84;17.16;96476.53;5095633;28;20044;-90
2021/05/13 12:01:55;;;;;;;4.22;3.20;;;;;;;38.61;17.37;96470.72;5095955;28;20106;-91
2021/05/13 12:04:21;;;;;;;2.38;1.98;;;;;;;38.63;17.55;96471.69;5074915;28;20123;-90